Time;durP1;ratioP1;P1;durP2;ratioP2;P2;SDS_P1;SDS_P2;PMS_P1;PMS_P2;Temp;Humidity;BMP_temperature;BMP_pressure;BME280_temperature;BME280_humidity;BME280_pressure;Samples;Min_cycle;Max_cycle;Signal;HPM_P1;HPM_P2
2020/12/14 00:01:03;;;;;;;3.30;0.97;;;7.40;93.10;;;;;;4829363;29;20515;-76
2020/12/14 00:03:30;;;;;;;2.50;0.73;;;7.40;93.10;;;;;;4832498;29;20038;-78
2020/12/14 00:05:57;;;;;;;3.33;0.80;;;7.50;93.10;;;;;;4813798;29;20080;-76
2020/12/14 00:08:23;;;;;;;4.20;1.00;;;7.50;93.00;;;;;;4834171;29;20533;-75
2020/12/14 00:10:50;;;;;;;2.13;0.70;;;7.50;93.00;;;;;;4812205;29;20086;-74
2020/12/14 00:13:17;;;;;;;1.83;0.80;;;7.50;93.00;;;;;;4842148;29;20034;-73
2020/12/14 00:15:43;;;;;;;2.73;0.50;;;7.50;92.90;;;;;;4811409;29;20069;-75
2020/12/14 00:18:10;;;;;;;2.10;0.80;;;7.50;92.90;;;;;;4811973;29;20546;-78
2020/12/14 00:20:36;;;;;;;2.40;0.93;;;7.50;92.90;;;;;;4816349;29;20089;-77
2020/12/14 00:23:03;;;;;;;2.27;0.90;;;7.50;92.90;;;;;;4827376;29;20105;-75
2020/12/14 00:25:29;;;;;;;3.50;1.20;;;7.50;92.90;;;;;;4843963;29;20056;-77
2020/12/14 00:27:56;;;;;;;4.53;1.30;;;7.50;92.90;;;;;;4815296;29;20049;-77
2020/12/14 00:30:22;;;;;;;2.77;0.90;;;7.60;92.90;;;;;;4842580;29;20125;-77
2020/12/14 00:32:51;;;;;;;2.07;0.63;;;7.60;92.90;;;;;;4827334;29;20107;-76
2020/12/14 00:35:19;;;;;;;1.90;0.70;;;7.60;92.90;;;;;;4843103;29;20041;-78
2020/12/14 00:37:46;;;;;;;4.70;0.97;;;7.60;92.80;;;;;;4843369;29;20505;-80
2020/12/14 00:40:12;;;;;;;1.23;0.60;;;7.60;92.80;;;;;;4819687;29;20125;-78
2020/12/14 00:42:42;;;;;;;2.17;0.70;;;7.70;92.80;;;;;;4839057;29;20050;-78
2020/12/14 00:45:09;;;;;;;3.23;0.60;;;7.70;92.80;;;;;;4827305;29;20053;-76
2020/12/14 00:47:35;;;;;;;2.90;0.73;;;7.70;92.80;;;;;;4842334;29;20121;-77
2020/12/14 00:50:04;;;;;;;1.87;0.80;;;7.70;92.80;;;;;;4826994;29;20053;-74
2020/12/14 00:52:30;;;;;;;1.80;0.80;;;7.70;92.80;;;;;;4826078;29;20046;-74
2020/12/14 00:54:57;;;;;;;5.53;1.13;;;7.70;92.70;;;;;;4841091;29;20077;-75
2020/12/14 00:57:23;;;;;;;2.17;0.70;;;7.70;92.70;;;;;;4796453;29;20591;-76
2020/12/14 00:59:50;;;;;;;2.63;0.70;;;7.70;92.70;;;;;;4795295;29;20054;-73
2020/12/14 01:02:22;;;;;;;2.43;0.90;;;7.70;92.70;;;;;;4842610;29;20102;-75
2020/12/14 01:04:50;;;;;;;1.63;0.70;;;7.70;92.70;;;;;;4811942;29;20050;-76
2020/12/14 01:07:16;;;;;;;4.30;0.80;;;7.80;92.70;;;;;;4842106;29;20499;-75
2020/12/14 01:09:43;;;;;;;3.03;0.57;;;7.70;92.60;;;;;;4842279;29;20066;-74
2020/12/14 01:12:10;;;;;;;2.63;0.73;;;7.80;92.70;;;;;;4841644;29;20384;-75
2020/12/14 01:14:36;;;;;;;1.77;0.60;;;7.80;92.70;;;;;;4842439;29;20484;-75
2020/12/14 01:17:03;;;;;;;2.97;0.70;;;7.80;92.60;;;;;;4836762;29;20046;-79
2020/12/14 01:19:29;;;;;;;2.30;0.77;;;7.80;92.60;;;;;;4813541;29;20054;-76
2020/12/14 01:21:56;;;;;;;2.97;0.80;;;7.80;92.60;;;;;;4811210;29;20042;-77
2020/12/14 01:24:22;;;;;;;1.70;0.70;;;7.80;92.50;;;;;;4826088;29;20038;-75
2020/12/14 01:26:49;;;;;;;4.60;0.90;;;7.80;92.50;;;;;;4822395;29;20503;-76
2020/12/14 01:29:16;;;;;;;4.60;1.20;;;7.80;92.50;;;;;;4825641;29;20046;-75
2020/12/14 01:31:42;;;;;;;2.37;0.60;;;7.90;92.60;;;;;;4826036;29;20495;-75
2020/12/14 01:34:09;;;;;;;3.77;0.80;;;7.80;92.50;;;;;;4826037;29;20060;-76
2020/12/14 01:36:35;;;;;;;1.70;0.50;;;7.90;92.60;;;;;;4810200;29;20098;-75
2020/12/14 01:39:02;;;;;;;1.73;0.63;;;7.80;92.60;;;;;;4842143;29;20053;-76
2020/12/14 01:41:28;;;;;;;1.87;0.50;;;7.90;92.60;;;;;;4795781;29;20154;-76
2020/12/14 01:43:55;;;;;;;1.47;0.60;;;7.90;92.60;;;;;;4825311;29;20091;-76
2020/12/14 01:46:30;;;;;;;1.33;0.50;;;7.90;92.60;;;;;;4795406;29;20564;-75
2020/12/14 01:49:00;;;;;;;1.10;0.50;;;7.90;92.60;;;;;;4841528;29;20041;-76
2020/12/14 01:51:31;;;;;;;2.23;1.10;;;7.90;92.60;;;;;;4810639;29;20045;-77
2020/12/14 01:53:59;;;;;;;2.23;0.60;;;7.90;92.60;;;;;;4825552;29;20466;-76
2020/12/14 01:56:26;;;;;;;2.90;0.93;;;7.90;92.60;;;;;;4819157;29;20095;-76
2020/12/14 01:58:53;;;;;;;1.03;0.50;;;7.90;92.60;;;;;;4825324;29;20463;-76
2020/12/14 02:01:20;;;;;;;2.40;0.57;;;7.90;92.60;;;;;;4807973;29;20132;-75
2020/12/14 02:03:47;;;;;;;2.47;0.70;;;8.00;92.60;;;;;;4790774;29;20114;-76
2020/12/14 02:06:14;;;;;;;3.00;0.60;;;8.00;92.60;;;;;;4805719;29;20073;-76
2020/12/14 02:08:40;;;;;;;1.97;0.60;;;8.00;92.60;;;;;;4825509;29;20387;-76
2020/12/14 02:11:07;;;;;;;1.57;0.60;;;8.00;92.60;;;;;;4823993;29;20034;-76
2020/12/14 02:13:33;;;;;;;2.03;0.70;;;8.00;92.60;;;;;;4825485;29;20079;-76
2020/12/14 02:16:00;;;;;;;2.47;0.73;;;8.00;92.50;;;;;;4839328;29;20110;-76
2020/12/14 02:18:26;;;;;;;1.57;0.50;;;8.00;92.50;;;;;;4810012;29;20057;-75
2020/12/14 02:20:53;;;;;;;2.60;0.70;;;8.00;92.50;;;;;;4841870;29;20094;-76
2020/12/14 02:23:19;;;;;;;1.80;0.50;;;8.00;92.50;;;;;;4809967;29;20118;-75
2020/12/14 02:25:46;;;;;;;2.47;0.60;;;8.10;92.50;;;;;;4825616;29;20054;-76
2020/12/14 02:28:12;;;;;;;1.23;0.47;;;8.10;92.50;;;;;;4810292;29;20081;-76
2020/12/14 02:30:41;;;;;;;1.73;0.50;;;8.10;92.60;;;;;;4809743;29;20106;-76
2020/12/14 02:33:08;;;;;;;3.30;0.80;;;8.10;92.60;;;;;;4810061;29;20046;-76
2020/12/14 02:35:34;;;;;;;1.93;0.50;;;8.10;92.60;;;;;;4795019;29;20041;-76
2020/12/14 02:38:01;;;;;;;1.47;0.43;;;8.10;92.50;;;;;;4831190;29;20126;-76
2020/12/14 02:40:27;;;;;;;3.10;0.60;;;8.10;92.60;;;;;;4826547;29;20049;-76
2020/12/14 02:42:54;;;;;;;3.73;0.90;;;8.10;92.60;;;;;;4841484;29;20045;-76
2020/12/14 02:45:20;;;;;;;2.47;0.60;;;8.10;92.60;;;;;;4840377;29;20495;-76
2020/12/14 02:47:47;;;;;;;3.47;0.50;;;8.10;92.60;;;;;;4810075;29;20060;-76
2020/12/14 02:50:13;;;;;;;1.47;0.80;;;8.10;92.50;;;;;;4839819;29;20534;-75
2020/12/14 02:52:39;;;;;;;1.10;0.40;;;8.10;92.50;;;;;;4840585;29;20050;-80
2020/12/14 02:55:06;;;;;;;2.20;0.50;;;8.10;92.50;;;;;;4825947;29;20081;-80
2020/12/14 02:57:32;;;;;;;1.77;0.60;;;8.10;92.60;;;;;;4825812;29;20050;-80
2020/12/14 03:00:00;;;;;;;2.10;0.50;;;8.10;92.60;;;;;;4840485;29;20049;-80
2020/12/14 03:02:27;;;;;;;3.07;0.70;;;8.10;92.50;;;;;;4825416;29;20042;-80
2020/12/14 03:04:53;;;;;;;1.80;0.70;;;8.00;92.50;;;;;;4810983;29;20525;-80
2020/12/14 03:07:20;;;;;;;1.47;0.50;;;8.00;92.60;;;;;;4810807;29;20107;-80
2020/12/14 03:09:46;;;;;;;2.30;0.60;;;8.00;92.60;;;;;;4840853;29;20586;-80
2020/12/14 03:12:13;;;;;;;1.57;0.40;;;8.00;92.60;;;;;;4803313;29;20564;-79
2020/12/14 03:14:39;;;;;;;1.43;0.50;;;8.00;92.70;;;;;;4810933;29;20045;-80
2020/12/14 03:17:06;;;;;;;1.30;0.40;;;8.00;92.70;;;;;;4825681;29;20046;-80
2020/12/14 03:19:34;;;;;;;1.70;0.50;;;8.00;92.80;;;;;;4825437;29;20144;-79
2020/12/14 03:22:00;;;;;;;1.33;0.50;;;8.00;92.80;;;;;;4833840;29;20046;-80
2020/12/14 03:24:27;;;;;;;0.70;0.40;;;8.00;92.80;;;;;;4856665;29;20033;-79
2020/12/14 03:26:53;;;;;;;1.70;0.50;;;8.00;92.80;;;;;;4828344;29;21766;-79
2020/12/14 03:29:20;;;;;;;1.33;0.47;;;8.00;92.90;;;;;;4819872;29;20052;-76
2020/12/14 03:31:46;;;;;;;1.27;0.50;;;8.00;92.90;;;;;;4842421;29;20050;-76
2020/12/14 03:34:14;;;;;;;2.37;0.70;;;8.00;92.90;;;;;;4857831;29;20387;-75
2020/12/14 03:36:40;;;;;;;2.33;0.50;;;8.10;92.90;;;;;;4846244;29;20436;-75
2020/12/14 03:39:09;;;;;;;1.50;0.60;;;8.10;92.90;;;;;;4816906;29;20045;-76
2020/12/14 03:41:35;;;;;;;1.53;0.90;;;8.00;92.80;;;;;;4825258;29;20060;-76
2020/12/14 03:44:02;;;;;;;2.60;0.90;;;8.00;92.80;;;;;;4841184;29;20044;-76
2020/12/14 03:46:31;;;;;;;1.93;0.50;;;8.00;92.80;;;;;;4858830;29;20049;-75
2020/12/14 03:48:59;;;;;;;1.47;0.70;;;8.00;92.80;;;;;;4861358;29;20056;-76
2020/12/14 03:51:25;;;;;;;1.53;0.53;;;8.00;92.80;;;;;;4862716;29;20098;-76
2020/12/14 03:53:53;;;;;;;2.23;0.90;;;8.00;92.90;;;;;;4830928;29;20076;-76
2020/12/14 03:56:23;;;;;;;2.37;0.83;;;8.00;93.20;;;;;;4848838;29;20098;-76
2020/12/14 03:58:50;;;;;;;2.07;0.80;;;7.90;92.90;;;;;;4833439;29;20041;-76
2020/12/14 04:01:25;;;;;;;1.90;0.90;;;7.90;93.00;;;;;;4815863;29;20132;-76
2020/12/14 04:03:53;;;;;;;1.50;0.60;;;7.90;93.00;;;;;;4854009;29;20479;-76
2020/12/14 04:06:22;;;;;;;3.77;1.20;;;7.90;93.10;;;;;;4830488;29;20049;-76
2020/12/14 04:08:49;;;;;;;1.77;0.80;;;7.90;93.10;;;;;;4830633;29;20050;-76
2020/12/14 04:11:17;;;;;;;1.87;0.70;;;7.90;93.10;;;;;;4846229;29;20420;-76
2020/12/14 04:13:44;;;;;;;2.30;0.50;;;7.80;93.20;;;;;;4830211;29;20114;-76
2020/12/14 04:16:11;;;;;;;2.93;1.10;;;7.90;93.20;;;;;;4861385;29;20098;-76
2020/12/14 04:18:38;;;;;;;2.60;0.90;;;7.80;93.20;;;;;;4823850;29;20053;-76
2020/12/14 04:21:05;;;;;;;4.53;1.10;;;7.80;93.30;;;;;;4829834;29;20037;-76
2020/12/14 04:23:31;;;;;;;2.63;0.90;;;7.90;93.30;;;;;;4827463;29;20050;-76
2020/12/14 04:25:58;;;;;;;1.40;0.57;;;7.90;93.30;;;;;;4840307;29;20070;-76
2020/12/14 04:28:25;;;;;;;1.50;0.50;;;7.90;93.30;;;;;;4843628;29;20106;-75
2020/12/14 04:30:51;;;;;;;1.77;0.90;;;7.90;93.40;;;;;;4812177;29;20045;-76
2020/12/14 04:33:18;;;;;;;2.53;0.90;;;7.90;93.40;;;;;;4843496;29;20401;-76
2020/12/14 04:35:44;;;;;;;2.37;0.83;;;7.90;93.40;;;;;;4795317;29;20581;-76
2020/12/14 04:38:11;;;;;;;2.53;1.00;;;7.90;93.40;;;;;;4827242;29;20121;-76
2020/12/14 04:40:37;;;;;;;1.97;0.80;;;7.90;93.40;;;;;;4811017;29;20042;-76
2020/12/14 04:43:07;;;;;;;2.63;0.60;;;7.90;93.50;;;;;;4843667;29;20073;-76
2020/12/14 04:45:35;;;;;;;2.97;0.70;;;7.90;93.50;;;;;;4841351;29;20046;-76
2020/12/14 04:48:01;;;;;;;1.77;0.50;;;7.90;93.50;;;;;;4812073;29;20079;-76
2020/12/14 04:50:28;;;;;;;2.17;0.53;;;7.90;93.50;;;;;;4840208;29;20507;-76
2020/12/14 04:52:54;;;;;;;2.67;1.07;;;7.90;93.50;;;;;;4843017;29;20054;-76
2020/12/14 04:55:23;;;;;;;3.03;1.20;;;7.90;93.60;;;;;;4796468;29;20057;-76
2020/12/14 04:57:51;;;;;;;4.27;1.30;;;7.80;93.50;;;;;;4809024;29;20042;-76
2020/12/14 05:00:18;;;;;;;1.87;0.80;;;7.80;93.60;;;;;;4820203;29;20070;-76
2020/12/14 05:02:55;;;;;;;2.20;0.63;;;7.80;93.70;;;;;;4826899;29;20533;-76
2020/12/14 05:05:23;;;;;;;1.10;0.50;;;7.80;93.70;;;;;;4839465;29;20049;-75
2020/12/14 05:07:50;;;;;;;1.30;0.93;;;7.80;93.80;;;;;;4796465;29;20495;-76
2020/12/14 05:10:23;;;;;;;1.97;0.60;;;7.80;93.80;;;;;;4833026;29;20038;-76
2020/12/14 05:12:50;;;;;;;1.67;0.50;;;7.80;93.80;;;;;;4841245;29;20486;-76
2020/12/14 05:15:26;;;;;;;1.50;0.70;;;7.80;93.90;;;;;;4826440;29;20076;-76
2020/12/14 05:18:11;;;;;;;1.30;0.70;;;7.80;93.90;;;;;;4841276;29;20130;-76
2020/12/14 05:20:38;;;;;;;1.87;0.70;;;7.80;93.90;;;;;;4826102;29;20049;-76
2020/12/14 05:23:10;;;;;;;1.60;0.47;;;7.80;93.90;;;;;;4821494;29;20038;-75
2020/12/14 05:25:37;;;;;;;1.67;0.50;;;7.80;93.90;;;;;;4810330;29;20098;-76
2020/12/14 05:28:12;;;;;;;2.23;0.87;;;7.80;94.00;;;;;;4825832;29;20453;-76
2020/12/14 05:30:43;;;;;;;2.00;0.73;;;7.80;94.00;;;;;;4805629;29;20050;-76
2020/12/14 05:33:12;;;;;;;1.07;0.50;;;7.80;94.00;;;;;;4826021;29;20052;-76
2020/12/14 05:35:40;;;;;;;2.40;0.70;;;7.80;94.30;;;;;;4796126;29;20426;-76
2020/12/14 05:38:13;;;;;;;1.10;0.60;;;7.90;94.00;;;;;;4825749;29;20037;-76
2020/12/14 05:40:40;;;;;;;1.45;0.77;;;7.90;94.10;;;;;;4824460;29;20121;-76
2020/12/14 05:43:09;;;;;;;2.30;0.77;;;7.90;94.10;;;;;;4826101;29;20050;-81
2020/12/14 05:45:35;;;;;;;1.80;0.90;;;7.90;94.10;;;;;;4811471;29;20096;-81
2020/12/14 05:48:02;;;;;;;1.60;0.60;;;7.90;94.10;;;;;;4826165;29;20046;-81
2020/12/14 05:50:29;;;;;;;1.17;0.50;;;7.90;94.10;;;;;;4842293;29;20120;-81
2020/12/14 05:53:04;;;;;;;1.10;0.50;;;7.90;94.10;;;;;;4804133;29;20062;-81
2020/12/14 05:55:34;;;;;;;1.57;0.60;;;7.90;94.10;;;;;;4824514;29;20041;-80
2020/12/14 05:58:02;;;;;;;2.87;0.80;;;7.90;94.10;;;;;;4811356;29;20122;-80
2020/12/14 06:00:31;;;;;;;1.20;0.70;;;7.90;94.10;;;;;;4842248;29;20038;-79
2020/12/14 06:02:57;;;;;;;1.50;0.53;;;7.90;94.10;;;;;;4824669;29;20049;-79
2020/12/14 06:05:26;;;;;;;1.83;0.63;;;7.90;94.20;;;;;;4835349;29;20406;-80
2020/12/14 06:08:00;;;;;;;1.67;0.77;;;7.90;94.40;;;;;;4811355;29;20132;-80
2020/12/14 06:10:31;;;;;;;2.40;0.93;;;7.90;94.20;;;;;;4797651;29;20167;-80
2020/12/14 06:13:08;;;;;;;2.13;0.43;;;7.90;94.20;;;;;;4830067;29;20491;-80
2020/12/14 06:15:39;;;;;;;1.13;0.60;;;7.90;94.20;;;;;;4825639;29;20113;-80
2020/12/14 06:18:12;;;;;;;1.67;1.00;;;7.90;94.20;;;;;;4822238;29;20106;-78
2020/12/14 06:20:39;;;;;;;1.73;0.70;;;7.90;94.20;;;;;;4841007;29;20070;-79
2020/12/14 06:23:07;;;;;;;1.20;0.60;;;7.90;94.30;;;;;;4820341;29;20503;-77
2020/12/14 06:25:34;;;;;;;1.30;0.50;;;7.90;94.30;;;;;;4825786;29;20102;-77
2020/12/14 06:28:30;;;;;;;1.47;0.60;;;7.90;94.30;;;;;;4824855;29;20046;-77
2020/12/14 06:30:57;;;;;;;1.13;0.50;;;7.90;94.20;;;;;;4824307;29;20131;-75
2020/12/14 06:33:40;;;;;;;3.50;0.50;;;7.90;94.30;;;;;;4821108;29;20046;-75
2020/12/14 06:36:21;;;;;;;1.93;0.80;;;7.90;94.30;;;;;;4833034;29;20551;-75
2020/12/14 06:38:49;;;;;;;2.13;1.23;;;7.90;94.30;;;;;;4828216;29;20045;-75
2020/12/14 06:41:20;;;;;;;3.00;0.73;;;7.90;94.30;;;;;;4831180;29;20081;-76
2020/12/14 06:43:49;;;;;;;1.60;0.67;;;7.90;94.60;;;;;;4824826;29;20046;-76
2020/12/14 06:46:29;;;;;;;2.07;0.60;;;7.90;94.30;;;;;;4806731;29;20041;-74
2020/12/14 06:48:56;;;;;;;2.77;0.60;;;7.90;94.30;;;;;;4839190;29;20125;-78
2020/12/14 06:51:22;;;;;;;1.17;0.50;;;7.90;94.30;;;;;;4795530;29;20076;-77
2020/12/14 06:53:54;;;;;;;1.60;0.60;;;7.90;94.30;;;;;;4809092;29;20057;-76
2020/12/14 06:56:26;;;;;;;1.53;0.70;;;7.90;94.40;;;;;;4839608;29;20091;-74
2020/12/14 06:58:54;;;;;;;1.80;0.45;;;8.00;94.40;;;;;;4840428;29;20503;-76
2020/12/14 07:01:35;;;;;;;1.43;0.80;;;7.90;94.40;;;;;;4841688;29;20386;-78
2020/12/14 07:04:11;;;;;;;1.53;0.60;;;7.90;94.40;;;;;;4810301;29;20049;-81
2020/12/14 07:06:37;;;;;;;1.77;1.00;;;7.90;94.40;;;;;;4810960;29;20141;-78
2020/12/14 07:09:38;;;;;;;1.63;0.57;;;7.90;94.40;;;;;;4825134;29;20046;-77
2020/12/14 07:12:10;;;;;;;2.87;1.00;;;7.90;94.40;;;;;;4796161;29;20134;-78
2020/12/14 07:14:53;;;;;;;1.60;0.60;;;7.90;94.40;;;;;;4809481;29;20049;-80
2020/12/14 07:17:23;;;;;;;1.42;0.63;;;7.90;94.40;;;;;;4826384;29;20081;-79
2020/12/14 07:19:58;;;;;;;2.10;0.63;;;7.90;94.50;;;;;;4852928;29;20073;-80
2020/12/14 07:22:47;;;;;;;1.87;0.60;;;8.00;94.50;;;;;;4844091;29;20486;-79
2020/12/14 07:25:23;;;;;;;1.67;0.60;;;8.00;94.50;;;;;;4858976;29;20093;-82
2020/12/14 07:27:49;;;;;;;2.40;0.70;;;8.00;94.50;;;;;;4840508;29;20371;-79
2020/12/14 07:30:19;;;;;;;3.03;0.70;;;8.00;94.50;;;;;;4837273;29;20056;-79
2020/12/14 07:32:47;;;;;;;1.67;0.67;;;8.00;94.50;;;;;;4863527;29;20540;-79
2020/12/14 07:35:15;;;;;;;2.37;0.60;;;8.00;94.50;;;;;;4846345;29;20050;-80
2020/12/14 07:37:42;;;;;;;2.53;1.10;;;8.00;94.50;;;;;;4840739;29;20042;-81
2020/12/14 07:40:10;;;;;;;1.93;0.87;;;8.00;94.50;;;;;;4860111;29;20038;-81
2020/12/14 07:42:38;;;;;;;1.83;0.73;;;8.00;94.50;;;;;;4847011;29;20043;-79
2020/12/14 07:45:13;;;;;;;2.20;1.00;;;8.00;94.50;;;;;;4863296;29;20045;-80
2020/12/14 07:47:42;;;;;;;2.30;1.57;;;8.10;94.60;;;;;;4846611;29;20086;-80
2020/12/14 07:50:13;;;;;;;2.87;1.03;;;8.10;94.60;;;;;;4861278;29;20045;-80
2020/12/14 07:52:40;;;;;;;3.77;0.93;;;8.10;94.60;;;;;;4828550;29;20069;-81
2020/12/14 07:55:08;;;;;;;2.83;1.73;;;8.10;94.60;;;;;;4841067;29;20045;-80
2020/12/14 07:57:38;;;;;;;2.80;1.40;;;8.10;94.60;;;;;;4834029;29;20536;-81
2020/12/14 08:00:10;;;;;;;2.43;1.40;;;8.10;94.60;;;;;;4846692;29;20109;-79
2020/12/14 08:02:41;;;;;;;3.73;1.70;;;8.20;94.60;;;;;;4862949;29;20042;-79
2020/12/14 08:05:13;;;;;;;2.93;1.40;;;8.10;94.60;;;;;;4851542;29;20049;-80
2020/12/14 08:07:43;;;;;;;3.53;1.30;;;8.20;94.60;;;;;;4861757;29;20057;-82
2020/12/14 08:10:10;;;;;;;2.53;1.50;;;8.20;94.60;;;;;;4862910;29;20124;-82
2020/12/14 08:12:41;;;;;;;2.90;1.57;;;8.20;94.60;;;;;;4812618;29;20073;-83
2020/12/14 08:15:17;;;;;;;2.60;1.40;;;8.20;94.60;;;;;;4840029;29;20050;-83
2020/12/14 08:17:45;;;;;;;2.30;1.23;;;8.30;94.70;;;;;;4830953;29;20045;-82
2020/12/14 08:20:29;;;;;;;2.60;1.20;;;8.30;94.70;;;;;;4838600;29;20081;-83
2020/12/14 08:23:00;;;;;;;2.13;0.93;;;8.30;94.70;;;;;;4838575;29;20503;-82
2020/12/14 08:25:32;;;;;;;4.60;1.50;;;8.30;94.70;;;;;;4817218;29;20058;-82
2020/12/14 08:28:03;;;;;;;2.90;1.50;;;8.40;94.70;;;;;;4825005;29;20038;-82
2020/12/14 08:30:34;;;;;;;2.87;1.60;;;8.40;94.70;;;;;;4827778;29;20050;-83
2020/12/14 08:33:12;;;;;;;3.27;1.53;;;8.40;94.70;;;;;;4842423;29;20042;-74
2020/12/14 08:35:43;;;;;;;2.37;1.30;;;8.40;94.70;;;;;;4836365;29;20130;-75
2020/12/14 08:38:15;;;;;;;2.37;1.10;;;8.40;94.70;;;;;;4826647;29;20086;-75
2020/12/14 08:40:54;;;;;;;3.10;1.23;;;8.40;94.70;;;;;;4822361;29;20097;-75
2020/12/14 08:43:23;;;;;;;1.70;0.80;;;8.50;94.70;;;;;;4826631;29;20054;-75
2020/12/14 08:46:04;;;;;;;2.33;1.20;;;8.50;94.70;;;;;;4826117;29;20069;-75
2020/12/14 08:48:42;;;;;;;3.43;1.40;;;8.50;94.70;;;;;;4826600;29;20124;-75
2020/12/14 08:51:14;;;;;;;3.00;1.50;;;8.50;94.80;;;;;;4840877;29;20046;-75
2020/12/14 08:53:42;;;;;;;2.87;1.33;;;8.50;94.80;;;;;;4809908;29;20050;-75
2020/12/14 08:56:11;;;;;;;2.37;1.17;;;8.50;94.80;;;;;;4813841;29;20070;-75
2020/12/14 08:58:55;;;;;;;4.10;1.17;;;8.60;94.80;;;;;;4838301;29;20046;-75
2020/12/14 09:01:24;;;;;;;2.30;1.10;;;8.60;94.80;;;;;;4819251;29;20050;-75
2020/12/14 09:03:55;;;;;;;3.10;1.60;;;8.60;94.80;;;;;;4832514;29;20149;-83
2020/12/14 09:06:36;;;;;;;2.50;1.10;;;8.60;94.80;;;;;;4816293;29;20434;-83
2020/12/14 09:09:04;;;;;;;2.83;1.27;;;8.60;94.80;;;;;;4820882;29;20047;-83
2020/12/14 09:11:50;;;;;;;2.57;1.10;;;8.60;94.80;;;;;;4822903;29;20046;-83
2020/12/14 09:14:25;;;;;;;2.57;1.43;;;8.70;94.90;;;;;;4842932;29;20041;-83
2020/12/14 09:17:02;;;;;;;2.67;1.40;;;8.70;94.80;;;;;;4826352;29;20078;-83
2020/12/14 09:19:31;;;;;;;2.90;1.60;;;8.70;94.80;;;;;;4850493;29;20041;-83
2020/12/14 09:21:58;;;;;;;2.50;1.60;;;8.80;94.80;;;;;;4852372;29;20053;-82
2020/12/14 09:24:35;;;;;;;3.10;1.90;;;8.80;94.80;;;;;;4860821;29;20049;-82
2020/12/14 09:27:04;;;;;;;3.53;1.80;;;8.80;94.80;;;;;;4847113;29;20057;-82
2020/12/14 09:29:32;;;;;;;2.73;1.50;;;8.80;94.80;;;;;;4857487;29;20053;-82
2020/12/14 09:31:59;;;;;;;2.87;1.73;;;8.80;94.80;;;;;;4851832;29;20132;-82
2020/12/14 09:34:26;;;;;;;2.23;1.20;;;8.90;94.90;;;;;;4842386;29;20113;-82
2020/12/14 09:36:54;;;;;;;2.40;1.37;;;8.90;94.90;;;;;;4840414;29;20046;-82
2020/12/14 09:39:22;;;;;;;2.83;1.20;;;9.00;94.90;;;;;;4856901;29;20038;-83
2020/12/14 09:41:49;;;;;;;3.87;1.40;;;9.00;95.10;;;;;;4829344;29;20037;-84
2020/12/14 09:44:17;;;;;;;1.93;1.00;;;9.00;94.80;;;;;;4844202;29;20535;-83
2020/12/14 09:46:46;;;;;;;2.87;1.50;;;9.10;94.90;;;;;;4856140;29;20070;-82
2020/12/14 09:49:14;;;;;;;2.67;1.30;;;9.10;94.90;;;;;;4855079;29;20061;-83
2020/12/14 09:51:40;;;;;;;2.33;1.10;;;9.10;94.90;;;;;;4845944;29;20038;-82
2020/12/14 09:54:07;;;;;;;2.40;1.40;;;9.10;94.90;;;;;;4843011;29;20037;-82
2020/12/14 09:56:34;;;;;;;2.30;1.23;;;9.20;94.90;;;;;;4843403;29;20054;-82
2020/12/14 09:59:04;;;;;;;2.60;1.80;;;9.20;94.90;;;;;;4853733;29;20053;-83
2020/12/14 10:01:31;;;;;;;3.10;1.60;;;9.20;94.90;;;;;;4812948;29;20094;-82
2020/12/14 10:03:58;;;;;;;2.50;1.60;;;9.20;94.90;;;;;;4842965;29;20037;-82
2020/12/14 10:06:26;;;;;;;2.27;0.90;;;9.30;94.90;;;;;;4843425;29;20041;-83
2020/12/14 10:08:54;;;;;;;2.23;1.27;;;9.30;94.90;;;;;;4828607;29;20057;-75
2020/12/14 10:11:25;;;;;;;2.83;1.63;;;9.40;94.90;;;;;;4836020;29;20053;-75
2020/12/14 10:13:52;;;;;;;3.23;2.20;;;9.40;94.90;;;;;;4850654;29;20156;-74
2020/12/14 10:16:19;;;;;;;2.50;1.40;;;9.50;94.90;;;;;;4835566;29;20045;-75
2020/12/14 10:18:46;;;;;;;2.50;1.53;;;9.50;94.90;;;;;;4812724;29;20110;-75
2020/12/14 10:21:13;;;;;;;3.33;1.90;;;9.60;94.90;;;;;;4857709;29;20038;-74
2020/12/14 10:23:39;;;;;;;3.03;1.87;;;9.60;94.90;;;;;;4819085;29;20046;-74
2020/12/14 10:26:08;;;;;;;3.67;1.70;;;9.70;94.90;;;;;;4824545;29;20073;-74
2020/12/14 10:28:36;;;;;;;4.87;2.60;;;9.70;94.90;;;;;;4857053;29;20054;-74
2020/12/14 10:31:05;;;;;;;3.27;1.50;;;9.80;95.00;;;;;;4857329;29;20051;-75
2020/12/14 10:33:32;;;;;;;2.77;1.90;;;9.90;95.00;;;;;;4827620;29;20049;-75
2020/12/14 10:36:10;;;;;;;2.87;1.67;;;9.90;94.90;;;;;;4812694;29;20049;-74
2020/12/14 10:38:38;;;;;;;2.50;1.50;;;10.00;95.00;;;;;;4848699;29;20053;-74
2020/12/14 10:41:05;;;;;;;3.70;1.67;;;10.00;95.00;;;;;;4849275;29;20064;-74
2020/12/14 10:43:32;;;;;;;3.73;1.57;;;10.10;95.00;;;;;;4843116;29;20093;-75
2020/12/14 10:45:59;;;;;;;2.57;1.67;;;10.20;95.00;;;;;;4813010;29;20041;-75
2020/12/14 10:48:26;;;;;;;3.00;1.60;;;10.20;94.90;;;;;;4827592;29;20451;-74
2020/12/14 10:50:55;;;;;;;2.17;1.20;;;10.20;94.90;;;;;;4827359;29;20053;-74
2020/12/14 10:53:21;;;;;;;5.13;1.70;;;10.30;94.90;;;;;;4840733;29;20110;-75
2020/12/14 10:55:48;;;;;;;3.43;2.20;;;10.30;94.90;;;;;;4827048;29;20049;-74
2020/12/14 10:58:14;;;;;;;3.00;2.20;;;10.30;94.90;;;;;;4842252;29;20056;-74
2020/12/14 11:00:41;;;;;;;2.33;1.60;;;10.40;94.90;;;;;;4827248;29;20050;-74
2020/12/14 11:03:08;;;;;;;4.03;2.10;;;10.40;94.90;;;;;;4858721;29;20041;-75
2020/12/14 11:05:34;;;;;;;3.80;1.83;;;10.40;94.90;;;;;;4839114;29;20150;-74
2020/12/14 11:08:01;;;;;;;2.43;1.40;;;10.40;95.00;;;;;;4841840;29;20045;-74
2020/12/14 11:10:27;;;;;;;3.43;1.70;;;10.40;95.00;;;;;;4842500;29;20126;-75
2020/12/14 11:12:54;;;;;;;3.07;1.50;;;10.50;95.00;;;;;;4833607;29;20056;-75
2020/12/14 11:15:21;;;;;;;2.63;1.70;;;10.60;95.30;;;;;;4857419;29;20042;-75
2020/12/14 11:17:47;;;;;;;3.00;1.73;;;10.60;95.00;;;;;;4857814;29;20481;-75
2020/12/14 11:20:15;;;;;;;3.30;1.97;;;10.60;95.00;;;;;;4842005;29;20061;-75
2020/12/14 11:22:42;;;;;;;3.37;2.23;;;10.50;95.00;;;;;;4812105;29;20101;-75
2020/12/14 11:25:10;;;;;;;4.63;2.33;;;10.60;95.00;;;;;;4841970;29;20524;-75
2020/12/14 11:27:37;;;;;;;2.50;1.60;;;10.60;95.00;;;;;;4842158;29;20113;-75
2020/12/14 11:30:07;;;;;;;2.80;1.50;;;10.50;95.00;;;;;;4826782;29;20049;-75
2020/12/14 11:32:34;;;;;;;3.90;1.83;;;10.60;95.00;;;;;;4840790;29;20046;-75
2020/12/14 11:35:00;;;;;;;3.67;1.90;;;10.60;95.00;;;;;;4827458;29;20069;-76
2020/12/14 11:37:27;;;;;;;3.83;2.70;;;10.60;95.00;;;;;;4858093;29;20142;-75
2020/12/14 11:39:54;;;;;;;3.77;1.83;;;10.50;95.00;;;;;;4827214;29;20073;-76
2020/12/14 11:42:20;;;;;;;2.37;1.67;;;10.60;95.00;;;;;;4824621;29;20663;-74
2020/12/14 11:44:47;;;;;;;2.30;1.53;;;10.60;95.00;;;;;;4850604;29;20041;-74
2020/12/14 11:47:14;;;;;;;3.03;1.70;;;10.60;95.10;;;;;;4835636;29;20113;-75
2020/12/14 11:49:41;;;;;;;3.27;2.10;;;10.60;95.00;;;;;;4841396;29;20042;-74
2020/12/14 11:52:08;;;;;;;2.90;1.90;;;10.60;95.00;;;;;;4858316;29;20546;-75
2020/12/14 11:54:35;;;;;;;3.63;2.20;;;10.60;95.00;;;;;;4858848;29;20105;-74
2020/12/14 11:57:02;;;;;;;4.50;2.10;;;10.60;95.00;;;;;;4810196;29;20452;-75
2020/12/14 11:59:28;;;;;;;5.73;3.03;;;10.60;95.00;;;;;;4829331;29;20082;-74
2020/12/14 12:01:55;;;;;;;3.43;2.50;;;10.60;95.00;;;;;;4842863;29;20136;-75
2020/12/14 12:04:22;;;;;;;3.70;2.10;;;10.60;95.00;;;;;;4845616;29;20052;-75
2020/12/14 12:06:49;;;;;;;3.87;2.40;;;10.60;95.10;;;;;;4862175;29;20042;-74
2020/12/14 12:09:34;;;;;;;4.70;2.47;;;10.60;95.00;;;;;;4846138;29;20061;-75
2020/12/14 12:12:01;;;;;;;5.00;3.77;;;10.60;95.00;;;;;;4846056;29;20061;-76
2020/12/14 12:14:30;;;;;;;4.83;2.87;;;10.60;95.00;;;;;;4830940;29;20041;-75
2020/12/14 12:16:58;;;;;;;3.47;2.30;;;10.60;95.00;;;;;;4845176;29;20052;-74
2020/12/14 12:19:25;;;;;;;5.17;2.30;;;10.70;95.00;;;;;;4830677;29;20059;-76
2020/12/14 12:21:52;;;;;;;3.40;2.03;;;10.70;95.00;;;;;;4815275;29;20076;-74
2020/12/14 12:24:21;;;;;;;3.17;1.87;;;10.70;95.00;;;;;;4844838;29;20048;-75
2020/12/14 12:26:49;;;;;;;4.00;2.17;;;10.70;95.00;;;;;;4835373;29;20102;-75
2020/12/14 12:29:17;;;;;;;4.17;2.97;;;10.70;95.00;;;;;;4834278;29;20050;-75
2020/12/14 12:31:55;;;;;;;3.47;2.10;;;10.80;95.00;;;;;;4814789;29;20044;-75
2020/12/14 12:34:35;;;;;;;3.47;2.03;;;10.80;95.00;;;;;;4832958;29;20061;-75
2020/12/14 12:37:03;;;;;;;3.77;1.93;;;10.80;95.00;;;;;;4855654;29;20414;-75
2020/12/14 12:39:29;;;;;;;3.70;2.10;;;10.90;95.00;;;;;;4836761;29;20049;-75
2020/12/14 12:41:57;;;;;;;3.70;2.37;;;11.00;95.00;;;;;;4860383;29;20053;-74
2020/12/14 12:44:24;;;;;;;3.43;1.97;;;11.00;94.90;;;;;;4829569;29;20042;-74
2020/12/14 12:46:53;;;;;;;2.90;1.60;;;11.00;94.90;;;;;;4823431;29;20045;-73
2020/12/14 12:49:20;;;;;;;2.60;1.50;;;11.10;94.90;;;;;;4828234;29;20041;-74
2020/12/14 12:51:49;;;;;;;2.47;1.60;;;11.20;94.80;;;;;;4826099;29;20049;-74
2020/12/14 12:54:16;;;;;;;2.80;2.00;;;11.20;94.80;;;;;;4798824;29;20060;-73
2020/12/14 12:56:43;;;;;;;2.60;1.87;;;11.30;94.80;;;;;;4844477;29;20604;-75
2020/12/14 12:59:11;;;;;;;3.90;1.63;;;11.30;94.70;;;;;;4860169;29;20566;-75
2020/12/14 13:01:40;;;;;;;4.30;2.60;;;11.30;94.60;;;;;;4844507;29;20041;-75
2020/12/14 13:04:07;;;;;;;4.90;2.57;;;11.40;94.60;;;;;;4839638;29;20117;-75